sensor_id;sensor_type;location;lat;lon;timestamp;P1;durP1;ratioP1;P2;durP2;ratioP2
38779;SDS011;29273;49.962;9.768;2023-07-02T00:00:35;1.20;;;1.10;;
38779;SDS011;29273;49.962;9.768;2023-07-02T00:03:03;1.08;;;0.98;;
38779;SDS011;29273;49.962;9.768;2023-07-02T00:05:29;1.88;;;1.10;;
38779;SDS011;29273;49.962;9.768;2023-07-02T00:07:55;1.23;;;1.10;;
38779;SDS011;29273;49.962;9.768;2023-07-02T00:10:21;1.92;;;1.20;;
38779;SDS011;29273;49.962;9.768;2023-07-02T00:12:46;1.30;;;1.20;;
38779;SDS011;29273;49.962;9.768;2023-07-02T00:15:12;1.98;;;1.27;;
38779;SDS011;29273;49.962;9.768;2023-07-02T00:17:37;1.52;;;1.42;;
38779;SDS011;29273;49.962;9.768;2023-07-02T00:20:06;1.55;;;1.30;;
38779;SDS011;29273;49.962;9.768;2023-07-02T00:22:39;1.40;;;1.30;;
38779;SDS011;29273;49.962;9.768;2023-07-02T00:25:07;1.30;;;1.20;;
38779;SDS011;29273;49.962;9.768;2023-07-02T00:27:33;1.50;;;1.40;;
38779;SDS011;29273;49.962;9.768;2023-07-02T00:29:58;1.45;;;1.30;;
38779;SDS011;29273;49.962;9.768;2023-07-02T00:32:24;1.70;;;1.50;;
38779;SDS011;29273;49.962;9.768;2023-07-02T00:34:49;1.50;;;1.20;;
38779;SDS011;29273;49.962;9.768;2023-07-02T00:37:15;1.83;;;1.65;;
38779;SDS011;29273;49.962;9.768;2023-07-02T00:39:40;1.67;;;1.40;;
38779;SDS011;29273;49.962;9.768;2023-07-02T00:42:06;1.50;;;1.30;;
38779;SDS011;29273;49.962;9.768;2023-07-02T00:44:33;1.42;;;1.30;;
38779;SDS011;29273;49.962;9.768;2023-07-02T00:47:06;1.58;;;1.40;;
38779;SDS011;29273;49.962;9.768;2023-07-02T00:49:35;1.40;;;1.20;;
38779;SDS011;29273;49.962;9.768;2023-07-02T00:52:00;2.03;;;1.30;;
38779;SDS011;29273;49.962;9.768;2023-07-02T00:54:29;1.38;;;1.27;;
38779;SDS011;29273;49.962;9.768;2023-07-02T00:56:55;1.70;;;1.10;;
38779;SDS011;29273;49.962;9.768;2023-07-02T00:59:21;1.65;;;1.20;;
38779;SDS011;29273;49.962;9.768;2023-07-02T01:01:47;1.20;;;1.10;;
38779;SDS011;29273;49.962;9.768;2023-07-02T01:04:18;1.60;;;1.35;;
38779;SDS011;29273;49.962;9.768;2023-07-02T01:06:44;1.33;;;1.23;;
38779;SDS011;29273;49.962;9.768;2023-07-02T01:09:10;1.25;;;0.98;;
38779;SDS011;29273;49.962;9.768;2023-07-02T01:11:49;1.27;;;1.00;;
38779;SDS011;29273;49.962;9.768;2023-07-02T01:14:19;1.10;;;1.00;;
38779;SDS011;29273;49.962;9.768;2023-07-02T01:16:46;1.90;;;0.88;;
38779;SDS011;29273;49.962;9.768;2023-07-02T01:22:19;1.08;;;0.90;;
38779;SDS011;29273;49.962;9.768;2023-07-02T01:24:45;1.42;;;1.10;;
38779;SDS011;29273;49.962;9.768;2023-07-02T01:27:13;1.27;;;1.15;;
38779;SDS011;29273;49.962;9.768;2023-07-02T01:29:40;1.20;;;1.10;;
38779;SDS011;29273;49.962;9.768;2023-07-02T01:32:06;1.20;;;1.08;;
38779;SDS011;29273;49.962;9.768;2023-07-02T01:34:33;1.17;;;1.00;;
38779;SDS011;29273;49.962;9.768;2023-07-02T01:37:00;0.88;;;0.80;;
38779;SDS011;29273;49.962;9.768;2023-07-02T01:39:26;1.90;;;0.88;;
38779;SDS011;29273;49.962;9.768;2023-07-02T01:41:52;0.85;;;0.70;;
38779;SDS011;29273;49.962;9.768;2023-07-02T01:44:19;1.42;;;0.90;;
38779;SDS011;29273;49.962;9.768;2023-07-02T01:46:46;1.48;;;1.13;;
38779;SDS011;29273;49.962;9.768;2023-07-02T01:49:17;1.02;;;0.90;;
38779;SDS011;29273;49.962;9.768;2023-07-02T01:51:50;1.00;;;0.77;;
38779;SDS011;29273;49.962;9.768;2023-07-02T01:54:17;1.10;;;1.00;;
38779;SDS011;29273;49.962;9.768;2023-07-02T01:56:43;1.65;;;0.80;;
38779;SDS011;29273;49.962;9.768;2023-07-02T01:59:08;1.00;;;0.90;;
38779;SDS011;29273;49.962;9.768;2023-07-02T02:01:34;0.77;;;0.75;;
38779;SDS011;29273;49.962;9.768;2023-07-02T02:03:59;2.00;;;1.00;;
38779;SDS011;29273;49.962;9.768;2023-07-02T02:06:25;1.33;;;0.88;;
38779;SDS011;29273;49.962;9.768;2023-07-02T02:08:50;0.75;;;0.70;;
38779;SDS011;29273;49.962;9.768;2023-07-02T02:11:16;0.98;;;0.80;;
38779;SDS011;29273;49.962;9.768;2023-07-02T02:13:41;1.75;;;0.95;;
38779;SDS011;29273;49.962;9.768;2023-07-02T02:16:07;1.05;;;0.95;;
38779;SDS011;29273;49.962;9.768;2023-07-02T02:18:33;1.55;;;0.85;;
38779;SDS011;29273;49.962;9.768;2023-07-02T02:20:59;1.05;;;0.80;;
38779;SDS011;29273;49.962;9.768;2023-07-02T02:23:25;1.80;;;0.90;;
38779;SDS011;29273;49.962;9.768;2023-07-02T02:25:51;0.88;;;0.80;;
38779;SDS011;29273;49.962;9.768;2023-07-02T02:28:16;1.27;;;0.90;;
38779;SDS011;29273;49.962;9.768;2023-07-02T02:30:42;1.13;;;0.73;;
38779;SDS011;29273;49.962;9.768;2023-07-02T02:33:07;0.85;;;0.85;;
38779;SDS011;29273;49.962;9.768;2023-07-02T02:35:33;0.77;;;0.63;;
38779;SDS011;29273;49.962;9.768;2023-07-02T02:38:01;1.40;;;0.85;;
38779;SDS011;29273;49.962;9.768;2023-07-02T02:40:28;1.27;;;0.80;;
38779;SDS011;29273;49.962;9.768;2023-07-02T02:42:54;0.80;;;0.80;;
38779;SDS011;29273;49.962;9.768;2023-07-02T02:45:19;1.40;;;0.90;;
38779;SDS011;29273;49.962;9.768;2023-07-02T02:47:48;0.75;;;0.75;;
38779;SDS011;29273;49.962;9.768;2023-07-02T02:50:13;1.35;;;1.00;;
38779;SDS011;29273;49.962;9.768;2023-07-02T02:52:39;0.88;;;0.80;;
38779;SDS011;29273;49.962;9.768;2023-07-02T02:55:05;1.02;;;0.90;;
38779;SDS011;29273;49.962;9.768;2023-07-02T02:57:31;0.80;;;0.70;;
38779;SDS011;29273;49.962;9.768;2023-07-02T02:59:57;0.93;;;0.75;;
38779;SDS011;29273;49.962;9.768;2023-07-02T03:02:23;1.30;;;0.60;;
38779;SDS011;29273;49.962;9.768;2023-07-02T03:04:48;1.15;;;0.90;;
38779;SDS011;29273;49.962;9.768;2023-07-02T03:07:14;0.60;;;0.60;;
38779;SDS011;29273;49.962;9.768;2023-07-02T03:09:40;1.17;;;0.80;;
38779;SDS011;29273;49.962;9.768;2023-07-02T03:12:06;1.27;;;0.90;;
38779;SDS011;29273;49.962;9.768;2023-07-02T03:14:32;1.42;;;0.80;;
38779;SDS011;29273;49.962;9.768;2023-07-02T03:16:58;0.98;;;0.70;;
38779;SDS011;29273;49.962;9.768;2023-07-02T03:19:24;1.35;;;0.70;;
38779;SDS011;29273;49.962;9.768;2023-07-02T03:21:49;0.82;;;0.75;;
38779;SDS011;29273;49.962;9.768;2023-07-02T03:24:15;0.98;;;0.73;;
38779;SDS011;29273;49.962;9.768;2023-07-02T03:26:41;1.35;;;0.80;;
38779;SDS011;29273;49.962;9.768;2023-07-02T03:29:08;0.90;;;0.70;;
38779;SDS011;29273;49.962;9.768;2023-07-02T03:31:34;1.15;;;0.80;;
38779;SDS011;29273;49.962;9.768;2023-07-02T03:34:01;1.10;;;0.90;;
38779;SDS011;29273;49.962;9.768;2023-07-02T03:36:29;2.35;;;0.82;;
38779;SDS011;29273;49.962;9.768;2023-07-02T03:38:55;1.30;;;0.82;;
38779;SDS011;29273;49.962;9.768;2023-07-02T03:41:20;1.15;;;0.70;;
38779;SDS011;29273;49.962;9.768;2023-07-02T03:43:46;1.25;;;0.77;;
38779;SDS011;29273;49.962;9.768;2023-07-02T03:46:12;0.90;;;0.80;;
38779;SDS011;29273;49.962;9.768;2023-07-02T03:48:38;1.10;;;0.90;;
38779;SDS011;29273;49.962;9.768;2023-07-02T03:51:03;1.20;;;0.85;;
38779;SDS011;29273;49.962;9.768;2023-07-02T03:53:29;1.85;;;1.13;;
38779;SDS011;29273;49.962;9.768;2023-07-02T03:55:54;1.13;;;1.00;;
38779;SDS011;29273;49.962;9.768;2023-07-02T03:58:19;1.58;;;1.00;;
38779;SDS011;29273;49.962;9.768;2023-07-02T04:00:45;1.45;;;0.93;;
38779;SDS011;29273;49.962;9.768;2023-07-02T04:03:15;1.42;;;1.00;;
38779;SDS011;29273;49.962;9.768;2023-07-02T04:05:41;1.88;;;1.00;;
38779;SDS011;29273;49.962;9.768;2023-07-02T04:08:07;1.73;;;1.30;;
38779;SDS011;29273;49.962;9.768;2023-07-02T04:10:32;1.83;;;1.13;;
38779;SDS011;29273;49.962;9.768;2023-07-02T04:12:58;1.40;;;1.20;;
38779;SDS011;29273;49.962;9.768;2023-07-02T04:15:23;2.10;;;1.40;;
38779;SDS011;29273;49.962;9.768;2023-07-02T04:17:50;2.20;;;1.60;;
38779;SDS011;29273;49.962;9.768;2023-07-02T04:20:16;2.40;;;1.23;;
38779;SDS011;29273;49.962;9.768;2023-07-02T04:22:44;2.30;;;1.38;;
38779;SDS011;29273;49.962;9.768;2023-07-02T04:25:11;2.80;;;1.50;;
38779;SDS011;29273;49.962;9.768;2023-07-02T04:27:40;2.38;;;1.80;;
38779;SDS011;29273;49.962;9.768;2023-07-02T04:30:07;2.60;;;1.48;;
38779;SDS011;29273;49.962;9.768;2023-07-02T04:32:35;2.83;;;1.73;;
38779;SDS011;29273;49.962;9.768;2023-07-02T04:35:01;3.90;;;2.08;;
38779;SDS011;29273;49.962;9.768;2023-07-02T04:37:27;2.55;;;1.90;;
38779;SDS011;29273;49.962;9.768;2023-07-02T04:39:55;2.88;;;1.98;;
38779;SDS011;29273;49.962;9.768;2023-07-02T04:42:20;3.22;;;2.42;;
38779;SDS011;29273;49.962;9.768;2023-07-02T04:44:46;2.00;;;1.80;;
38779;SDS011;29273;49.962;9.768;2023-07-02T04:47:11;2.78;;;1.80;;
38779;SDS011;29273;49.962;9.768;2023-07-02T04:49:37;2.65;;;1.95;;
38779;SDS011;29273;49.962;9.768;2023-07-02T04:52:05;3.25;;;2.03;;
38779;SDS011;29273;49.962;9.768;2023-07-02T04:54:31;2.78;;;1.80;;
38779;SDS011;29273;49.962;9.768;2023-07-02T04:56:56;3.38;;;2.33;;
38779;SDS011;29273;49.962;9.768;2023-07-02T04:59:24;4.82;;;2.60;;
38779;SDS011;29273;49.962;9.768;2023-07-02T05:01:49;3.42;;;2.50;;
38779;SDS011;29273;49.962;9.768;2023-07-02T05:04:15;2.63;;;1.85;;
38779;SDS011;29273;49.962;9.768;2023-07-02T05:06:40;2.67;;;2.08;;
38779;SDS011;29273;49.962;9.768;2023-07-02T05:09:06;2.80;;;2.08;;
38779;SDS011;29273;49.962;9.768;2023-07-02T05:11:31;2.65;;;2.05;;
38779;SDS011;29273;49.962;9.768;2023-07-02T05:13:57;4.07;;;2.50;;
38779;SDS011;29273;49.962;9.768;2023-07-02T05:16:22;4.55;;;2.70;;
38779;SDS011;29273;49.962;9.768;2023-07-02T05:18:47;3.55;;;2.30;;
38779;SDS011;29273;49.962;9.768;2023-07-02T05:21:17;3.65;;;2.63;;
38779;SDS011;29273;49.962;9.768;2023-07-02T05:23:43;5.13;;;2.80;;
38779;SDS011;29273;49.962;9.768;2023-07-02T05:26:08;3.33;;;2.67;;
38779;SDS011;29273;49.962;9.768;2023-07-02T05:28:34;6.10;;;3.20;;
38779;SDS011;29273;49.962;9.768;2023-07-02T05:30:59;4.80;;;3.30;;
38779;SDS011;29273;49.962;9.768;2023-07-02T05:33:25;4.35;;;3.17;;
38779;SDS011;29273;49.962;9.768;2023-07-02T05:35:50;4.78;;;3.20;;
38779;SDS011;29273;49.962;9.768;2023-07-02T05:38:17;4.63;;;3.30;;
38779;SDS011;29273;49.962;9.768;2023-07-02T05:40:43;4.30;;;2.75;;
38779;SDS011;29273;49.962;9.768;2023-07-02T05:43:09;3.20;;;2.45;;
38779;SDS011;29273;49.962;9.768;2023-07-02T05:45:35;3.80;;;2.78;;
38779;SDS011;29273;49.962;9.768;2023-07-02T05:48:00;5.60;;;3.70;;
38779;SDS011;29273;49.962;9.768;2023-07-02T05:50:26;5.00;;;3.58;;
38779;SDS011;29273;49.962;9.768;2023-07-02T05:52:51;5.50;;;3.58;;
38779;SDS011;29273;49.962;9.768;2023-07-02T05:55:17;5.63;;;3.35;;
38779;SDS011;29273;49.962;9.768;2023-07-02T05:57:42;7.13;;;3.20;;
38779;SDS011;29273;49.962;9.768;2023-07-02T06:00:08;5.72;;;3.88;;
38779;SDS011;29273;49.962;9.768;2023-07-02T06:02:39;5.65;;;3.63;;
38779;SDS011;29273;49.962;9.768;2023-07-02T06:05:05;5.25;;;3.88;;
38779;SDS011;29273;49.962;9.768;2023-07-02T06:07:31;5.82;;;3.75;;
38779;SDS011;29273;49.962;9.768;2023-07-02T06:09:56;4.28;;;3.42;;
38779;SDS011;29273;49.962;9.768;2023-07-02T06:12:22;6.65;;;4.20;;
38779;SDS011;29273;49.962;9.768;2023-07-02T06:14:47;6.07;;;4.25;;
38779;SDS011;29273;49.962;9.768;2023-07-02T06:17:13;5.88;;;4.18;;
38779;SDS011;29273;49.962;9.768;2023-07-02T06:19:40;6.15;;;4.30;;
38779;SDS011;29273;49.962;9.768;2023-07-02T06:22:06;5.88;;;4.20;;
38779;SDS011;29273;49.962;9.768;2023-07-02T06:24:32;6.88;;;4.72;;
38779;SDS011;29273;49.962;9.768;2023-07-02T06:26:58;6.97;;;4.72;;
38779;SDS011;29273;49.962;9.768;2023-07-02T06:29:23;6.38;;;4.70;;
38779;SDS011;29273;49.962;9.768;2023-07-02T06:31:49;7.40;;;4.40;;
38779;SDS011;29273;49.962;9.768;2023-07-02T06:34:15;5.60;;;4.30;;
38779;SDS011;29273;49.962;9.768;2023-07-02T06:36:41;5.80;;;4.30;;
38779;SDS011;29273;49.962;9.768;2023-07-02T06:39:07;6.53;;;4.65;;
38779;SDS011;29273;49.962;9.768;2023-07-02T06:41:34;7.70;;;4.80;;
38779;SDS011;29273;49.962;9.768;2023-07-02T06:44:00;6.75;;;4.38;;
38779;SDS011;29273;49.962;9.768;2023-07-02T06:46:26;6.35;;;4.25;;
38779;SDS011;29273;49.962;9.768;2023-07-02T06:48:51;7.25;;;4.57;;
38779;SDS011;29273;49.962;9.768;2023-07-02T06:51:17;5.88;;;4.25;;
38779;SDS011;29273;49.962;9.768;2023-07-02T06:53:44;5.32;;;4.13;;
38779;SDS011;29273;49.962;9.768;2023-07-02T06:56:09;5.50;;;4.18;;
38779;SDS011;29273;49.962;9.768;2023-07-02T06:58:35;5.10;;;3.70;;
38779;SDS011;29273;49.962;9.768;2023-07-02T07:01:01;5.93;;;4.00;;
38779;SDS011;29273;49.962;9.768;2023-07-02T07:03:27;5.63;;;4.43;;
38779;SDS011;29273;49.962;9.768;2023-07-02T07:05:52;5.90;;;4.10;;
38779;SDS011;29273;49.962;9.768;2023-07-02T07:08:18;7.25;;;4.63;;
38779;SDS011;29273;49.962;9.768;2023-07-02T07:10:44;6.65;;;4.68;;
38779;SDS011;29273;49.962;9.768;2023-07-02T07:13:10;5.47;;;3.97;;
38779;SDS011;29273;49.962;9.768;2023-07-02T07:15:36;7.55;;;4.97;;
38779;SDS011;29273;49.962;9.768;2023-07-02T07:18:02;5.32;;;3.90;;
38779;SDS011;29273;49.962;9.768;2023-07-02T07:20:28;5.40;;;4.20;;
38779;SDS011;29273;49.962;9.768;2023-07-02T07:22:54;5.03;;;4.00;;
38779;SDS011;29273;49.962;9.768;2023-07-02T07:25:19;6.28;;;4.50;;
38779;SDS011;29273;49.962;9.768;2023-07-02T07:27:45;6.53;;;4.63;;
38779;SDS011;29273;49.962;9.768;2023-07-02T07:30:10;6.70;;;4.32;;
38779;SDS011;29273;49.962;9.768;2023-07-02T07:32:36;5.45;;;3.83;;
38779;SDS011;29273;49.962;9.768;2023-07-02T07:35:02;7.72;;;5.38;;
38779;SDS011;29273;49.962;9.768;2023-07-02T07:37:28;6.75;;;4.68;;
38779;SDS011;29273;49.962;9.768;2023-07-02T07:39:53;6.03;;;4.32;;
38779;SDS011;29273;49.962;9.768;2023-07-02T07:42:19;6.00;;;4.55;;
38779;SDS011;29273;49.962;9.768;2023-07-02T07:44:45;5.35;;;4.00;;
38779;SDS011;29273;49.962;9.768;2023-07-02T07:47:11;6.18;;;4.45;;
38779;SDS011;29273;49.962;9.768;2023-07-02T07:49:37;5.88;;;4.05;;
38779;SDS011;29273;49.962;9.768;2023-07-02T07:52:02;6.20;;;4.13;;
38779;SDS011;29273;49.962;9.768;2023-07-02T07:54:29;5.68;;;4.13;;
38779;SDS011;29273;49.962;9.768;2023-07-02T07:56:54;6.40;;;4.60;;
38779;SDS011;29273;49.962;9.768;2023-07-02T07:59:20;6.05;;;4.60;;
38779;SDS011;29273;49.962;9.768;2023-07-02T08:01:45;6.95;;;4.75;;
38779;SDS011;29273;49.962;9.768;2023-07-02T08:04:12;6.75;;;4.68;;
38779;SDS011;29273;49.962;9.768;2023-07-02T08:06:37;7.00;;;5.00;;
38779;SDS011;29273;49.962;9.768;2023-07-02T08:09:03;7.20;;;4.97;;
38779;SDS011;29273;49.962;9.768;2023-07-02T08:11:29;6.60;;;4.93;;
38779;SDS011;29273;49.962;9.768;2023-07-02T08:13:54;6.80;;;4.90;;
38779;SDS011;29273;49.962;9.768;2023-07-02T08:16:19;6.53;;;4.80;;
38779;SDS011;29273;49.962;9.768;2023-07-02T08:18:45;7.75;;;5.18;;
38779;SDS011;29273;49.962;9.768;2023-07-02T08:21:10;7.25;;;5.32;;
38779;SDS011;29273;49.962;9.768;2023-07-02T08:23:36;6.95;;;5.28;;
38779;SDS011;29273;49.962;9.768;2023-07-02T08:26:02;7.65;;;5.20;;
38779;SDS011;29273;49.962;9.768;2023-07-02T08:28:28;8.43;;;5.30;;
38779;SDS011;29273;49.962;9.768;2023-07-02T08:30:54;6.72;;;4.90;;
38779;SDS011;29273;49.962;9.768;2023-07-02T08:33:19;5.95;;;4.82;;
38779;SDS011;29273;49.962;9.768;2023-07-02T08:35:45;7.20;;;5.47;;
38779;SDS011;29273;49.962;9.768;2023-07-02T08:38:11;5.97;;;4.63;;
38779;SDS011;29273;49.962;9.768;2023-07-02T08:40:36;7.07;;;5.18;;
38779;SDS011;29273;49.962;9.768;2023-07-02T08:43:02;6.18;;;4.45;;
38779;SDS011;29273;49.962;9.768;2023-07-02T08:45:28;7.28;;;5.45;;
38779;SDS011;29273;49.962;9.768;2023-07-02T08:47:53;7.72;;;5.30;;
38779;SDS011;29273;49.962;9.768;2023-07-02T08:50:22;7.05;;;5.40;;
38779;SDS011;29273;49.962;9.768;2023-07-02T08:52:48;8.68;;;5.78;;
38779;SDS011;29273;49.962;9.768;2023-07-02T08:55:14;7.75;;;5.15;;
38779;SDS011;29273;49.962;9.768;2023-07-02T08:57:40;10.23;;;5.93;;
38779;SDS011;29273;49.962;9.768;2023-07-02T09:00:14;7.47;;;4.80;;
38779;SDS011;29273;49.962;9.768;2023-07-02T09:02:40;7.72;;;5.07;;
38779;SDS011;29273;49.962;9.768;2023-07-02T09:05:05;6.60;;;4.88;;
38779;SDS011;29273;49.962;9.768;2023-07-02T09:07:31;8.05;;;5.07;;
38779;SDS011;29273;49.962;9.768;2023-07-02T09:09:57;7.63;;;5.05;;
38779;SDS011;29273;49.962;9.768;2023-07-02T09:12:26;7.93;;;5.53;;
38779;SDS011;29273;49.962;9.768;2023-07-02T09:14:59;7.47;;;5.30;;
38779;SDS011;29273;49.962;9.768;2023-07-02T09:17:30;8.55;;;5.10;;
38779;SDS011;29273;49.962;9.768;2023-07-02T09:19:57;6.03;;;4.50;;
38779;SDS011;29273;49.962;9.768;2023-07-02T09:22:25;6.40;;;4.72;;
38779;SDS011;29273;49.962;9.768;2023-07-02T09:24:52;7.65;;;5.03;;
38779;SDS011;29273;49.962;9.768;2023-07-02T09:27:43;6.03;;;4.57;;
38779;SDS011;29273;49.962;9.768;2023-07-02T09:30:09;5.93;;;4.50;;
38779;SDS011;29273;49.962;9.768;2023-07-02T09:32:37;5.88;;;4.72;;
38779;SDS011;29273;49.962;9.768;2023-07-02T09:35:03;6.13;;;4.80;;
38779;SDS011;29273;49.962;9.768;2023-07-02T09:37:30;5.97;;;4.60;;
38779;SDS011;29273;49.962;9.768;2023-07-02T09:39:56;7.45;;;5.10;;
38779;SDS011;29273;49.962;9.768;2023-07-02T09:42:22;5.82;;;4.60;;
38779;SDS011;29273;49.962;9.768;2023-07-02T09:44:51;6.93;;;5.10;;
38779;SDS011;29273;49.962;9.768;2023-07-02T09:47:18;6.55;;;4.72;;
38779;SDS011;29273;49.962;9.768;2023-07-02T09:49:54;6.50;;;4.75;;
38779;SDS011;29273;49.962;9.768;2023-07-02T09:52:20;10.65;;;4.55;;
38779;SDS011;29273;49.962;9.768;2023-07-02T09:54:46;5.25;;;4.05;;
38779;SDS011;29273;49.962;9.768;2023-07-02T09:57:12;5.90;;;4.50;;
38779;SDS011;29273;49.962;9.768;2023-07-02T09:59:38;5.45;;;4.47;;
38779;SDS011;29273;49.962;9.768;2023-07-02T10:02:04;5.18;;;3.78;;
38779;SDS011;29273;49.962;9.768;2023-07-02T10:04:40;5.63;;;4.30;;
38779;SDS011;29273;49.962;9.768;2023-07-02T10:07:07;5.10;;;4.10;;
38779;SDS011;29273;49.962;9.768;2023-07-02T10:09:43;5.50;;;3.72;;
38779;SDS011;29273;49.962;9.768;2023-07-02T10:14:44;5.10;;;3.80;;
38779;SDS011;29273;49.962;9.768;2023-07-02T10:17:10;4.00;;;3.58;;
38779;SDS011;29273;49.962;9.768;2023-07-02T10:19:52;4.80;;;3.90;;
38779;SDS011;29273;49.962;9.768;2023-07-02T10:22:18;5.18;;;3.67;;
38779;SDS011;29273;49.962;9.768;2023-07-02T10:27:34;5.75;;;4.30;;
38779;SDS011;29273;49.962;9.768;2023-07-02T10:30:05;5.38;;;4.15;;
38779;SDS011;29273;49.962;9.768;2023-07-02T10:32:32;5.45;;;4.30;;
38779;SDS011;29273;49.962;9.768;2023-07-02T10:34:59;5.40;;;4.40;;
38779;SDS011;29273;49.962;9.768;2023-07-02T10:37:34;5.53;;;4.28;;
38779;SDS011;29273;49.962;9.768;2023-07-02T10:40:02;6.07;;;4.10;;
38779;SDS011;29273;49.962;9.768;2023-07-02T10:42:30;5.00;;;4.35;;
38779;SDS011;29273;49.962;9.768;2023-07-02T10:44:56;5.28;;;4.03;;
38779;SDS011;29273;49.962;9.768;2023-07-02T10:47:22;5.03;;;4.13;;
38779;SDS011;29273;49.962;9.768;2023-07-02T10:49:47;5.57;;;4.35;;
38779;SDS011;29273;49.962;9.768;2023-07-02T10:52:13;5.10;;;4.38;;
38779;SDS011;29273;49.962;9.768;2023-07-02T10:54:45;5.93;;;4.53;;
38779;SDS011;29273;49.962;9.768;2023-07-02T10:57:13;6.13;;;4.40;;
38779;SDS011;29273;49.962;9.768;2023-07-02T10:59:41;6.03;;;4.13;;
38779;SDS011;29273;49.962;9.768;2023-07-02T11:02:07;5.72;;;4.10;;
38779;SDS011;29273;49.962;9.768;2023-07-02T11:04:35;4.57;;;3.90;;
38779;SDS011;29273;49.962;9.768;2023-07-02T11:07:01;4.60;;;3.55;;
38779;SDS011;29273;49.962;9.768;2023-07-02T11:09:27;5.97;;;3.95;;
38779;SDS011;29273;49.962;9.768;2023-07-02T11:11:53;5.38;;;4.20;;
38779;SDS011;29273;49.962;9.768;2023-07-02T11:14:27;4.82;;;3.88;;
38779;SDS011;29273;49.962;9.768;2023-07-02T11:16:55;5.13;;;3.92;;
38779;SDS011;29273;49.962;9.768;2023-07-02T11:19:21;6.60;;;4.38;;
38779;SDS011;29273;49.962;9.768;2023-07-02T11:21:51;4.70;;;3.97;;
38779;SDS011;29273;49.962;9.768;2023-07-02T11:24:25;5.68;;;3.92;;
38779;SDS011;29273;49.962;9.768;2023-07-02T11:26:52;4.93;;;4.20;;
38779;SDS011;29273;49.962;9.768;2023-07-02T11:29:18;5.97;;;4.13;;
38779;SDS011;29273;49.962;9.768;2023-07-02T11:31:43;4.65;;;3.88;;
38779;SDS011;29273;49.962;9.768;2023-07-02T11:34:15;5.63;;;4.00;;
38779;SDS011;29273;49.962;9.768;2023-07-02T11:36:46;7.78;;;4.20;;
38779;SDS011;29273;49.962;9.768;2023-07-02T11:39:11;5.80;;;4.20;;
38779;SDS011;29273;49.962;9.768;2023-07-02T11:41:41;5.30;;;4.45;;
38779;SDS011;29273;49.962;9.768;2023-07-02T11:44:08;5.30;;;4.18;;
38779;SDS011;29273;49.962;9.768;2023-07-02T11:46:34;6.22;;;4.60;;
38779;SDS011;29273;49.962;9.768;2023-07-02T11:49:00;5.38;;;4.32;;
38779;SDS011;29273;49.962;9.768;2023-07-02T11:51:26;4.35;;;3.63;;
38779;SDS011;29273;49.962;9.768;2023-07-02T11:53:51;5.55;;;3.90;;
38779;SDS011;29273;49.962;9.768;2023-07-02T11:56:17;6.75;;;4.40;;
38779;SDS011;29273;49.962;9.768;2023-07-02T11:58:42;6.47;;;4.57;;
38779;SDS011;29273;49.962;9.768;2023-07-02T12:01:08;6.85;;;5.60;;
38779;SDS011;29273;49.962;9.768;2023-07-02T12:03:33;6.55;;;4.55;;
38779;SDS011;29273;49.962;9.768;2023-07-02T12:05:59;6.05;;;4.45;;
38779;SDS011;29273;49.962;9.768;2023-07-02T12:08:25;6.00;;;4.75;;
38779;SDS011;29273;49.962;9.768;2023-07-02T12:10:50;7.65;;;5.05;;
38779;SDS011;29273;49.962;9.768;2023-07-02T12:13:16;7.18;;;5.15;;
38779;SDS011;29273;49.962;9.768;2023-07-02T12:15:41;6.43;;;5.10;;
38779;SDS011;29273;49.962;9.768;2023-07-02T12:18:08;6.80;;;5.30;;
38779;SDS011;29273;49.962;9.768;2023-07-02T12:20:34;6.25;;;4.65;;
38779;SDS011;29273;49.962;9.768;2023-07-02T12:22:59;7.72;;;5.22;;
38779;SDS011;29273;49.962;9.768;2023-07-02T12:25:25;7.20;;;5.32;;
38779;SDS011;29273;49.962;9.768;2023-07-02T12:27:50;6.78;;;5.13;;
38779;SDS011;29273;49.962;9.768;2023-07-02T12:30:16;6.90;;;5.20;;
38779;SDS011;29273;49.962;9.768;2023-07-02T12:32:42;6.43;;;5.35;;
38779;SDS011;29273;49.962;9.768;2023-07-02T12:35:09;6.18;;;4.85;;
38779;SDS011;29273;49.962;9.768;2023-07-02T12:37:34;6.40;;;5.00;;
38779;SDS011;29273;49.962;9.768;2023-07-02T12:40:00;6.93;;;5.57;;
38779;SDS011;29273;49.962;9.768;2023-07-02T12:42:26;7.88;;;5.60;;
38779;SDS011;29273;49.962;9.768;2023-07-02T12:44:52;7.30;;;5.70;;
38779;SDS011;29273;49.962;9.768;2023-07-02T12:47:17;7.25;;;6.00;;
38779;SDS011;29273;49.962;9.768;2023-07-02T12:49:43;8.88;;;5.40;;
38779;SDS011;29273;49.962;9.768;2023-07-02T12:52:08;8.13;;;5.43;;
38779;SDS011;29273;49.962;9.768;2023-07-02T12:54:34;6.20;;;5.45;;
38779;SDS011;29273;49.962;9.768;2023-07-02T12:56:59;7.30;;;5.45;;
38779;SDS011;29273;49.962;9.768;2023-07-02T12:59:25;6.18;;;5.38;;
38779;SDS011;29273;49.962;9.768;2023-07-02T13:01:50;8.43;;;6.25;;
38779;SDS011;29273;49.962;9.768;2023-07-02T13:04:16;7.50;;;5.88;;
38779;SDS011;29273;49.962;9.768;2023-07-02T13:06:41;7.35;;;5.38;;
38779;SDS011;29273;49.962;9.768;2023-07-02T13:09:07;6.85;;;5.40;;
38779;SDS011;29273;49.962;9.768;2023-07-02T13:11:33;6.68;;;5.78;;
38779;SDS011;29273;49.962;9.768;2023-07-02T13:13:58;7.15;;;5.90;;
38779;SDS011;29273;49.962;9.768;2023-07-02T13:16:24;9.07;;;6.47;;
38779;SDS011;29273;49.962;9.768;2023-07-02T13:18:49;6.30;;;5.18;;
38779;SDS011;29273;49.962;9.768;2023-07-02T13:21:15;6.70;;;5.50;;
38779;SDS011;29273;49.962;9.768;2023-07-02T13:23:40;9.15;;;6.57;;
38779;SDS011;29273;49.962;9.768;2023-07-02T13:26:06;8.80;;;6.38;;
38779;SDS011;29273;49.962;9.768;2023-07-02T13:28:31;9.40;;;6.50;;
38779;SDS011;29273;49.962;9.768;2023-07-02T13:30:56;6.63;;;5.63;;
38779;SDS011;29273;49.962;9.768;2023-07-02T13:33:22;7.45;;;5.85;;
38779;SDS011;29273;49.962;9.768;2023-07-02T13:35:47;8.10;;;6.85;;
38779;SDS011;29273;49.962;9.768;2023-07-02T13:38:14;8.73;;;6.97;;
38779;SDS011;29273;49.962;9.768;2023-07-02T13:40:39;8.98;;;7.10;;
38779;SDS011;29273;49.962;9.768;2023-07-02T13:43:05;8.68;;;6.75;;
38779;SDS011;29273;49.962;9.768;2023-07-02T13:45:30;8.80;;;7.00;;
38779;SDS011;29273;49.962;9.768;2023-07-02T13:47:56;8.40;;;6.72;;
38779;SDS011;29273;49.962;9.768;2023-07-02T13:50:22;9.32;;;7.13;;
38779;SDS011;29273;49.962;9.768;2023-07-02T13:52:48;9.85;;;7.15;;
38779;SDS011;29273;49.962;9.768;2023-07-02T13:55:15;8.75;;;7.10;;
38779;SDS011;29273;49.962;9.768;2023-07-02T13:57:40;7.88;;;7.05;;
38779;SDS011;29273;49.962;9.768;2023-07-02T14:00:06;8.18;;;6.90;;
38779;SDS011;29273;49.962;9.768;2023-07-02T14:02:32;8.90;;;7.32;;
38779;SDS011;29273;49.962;9.768;2023-07-02T14:04:58;10.45;;;7.50;;
38779;SDS011;29273;49.962;9.768;2023-07-02T14:07:24;9.20;;;6.53;;
38779;SDS011;29273;49.962;9.768;2023-07-02T14:09:49;8.15;;;6.72;;
38779;SDS011;29273;49.962;9.768;2023-07-02T14:12:15;8.27;;;6.65;;
38779;SDS011;29273;49.962;9.768;2023-07-02T14:14:40;8.98;;;6.82;;
38779;SDS011;29273;49.962;9.768;2023-07-02T14:17:06;10.25;;;7.75;;
38779;SDS011;29273;49.962;9.768;2023-07-02T14:19:32;8.35;;;6.90;;
38779;SDS011;29273;49.962;9.768;2023-07-02T14:21:58;9.95;;;7.72;;
38779;SDS011;29273;49.962;9.768;2023-07-02T14:24:23;11.20;;;8.07;;
38779;SDS011;29273;49.962;9.768;2023-07-02T14:26:51;10.32;;;7.82;;
38779;SDS011;29273;49.962;9.768;2023-07-02T14:29:16;10.95;;;7.82;;
38779;SDS011;29273;49.962;9.768;2023-07-02T14:31:42;8.90;;;7.60;;
38779;SDS011;29273;49.962;9.768;2023-07-02T14:34:08;10.00;;;7.85;;
38779;SDS011;29273;49.962;9.768;2023-07-02T14:36:33;9.32;;;7.53;;
38779;SDS011;29273;49.962;9.768;2023-07-02T14:38:59;10.80;;;8.20;;
38779;SDS011;29273;49.962;9.768;2023-07-02T14:41:24;9.73;;;7.50;;
38779;SDS011;29273;49.962;9.768;2023-07-02T14:43:50;9.77;;;7.32;;
38779;SDS011;29273;49.962;9.768;2023-07-02T14:46:15;10.35;;;8.00;;
38779;SDS011;29273;49.962;9.768;2023-07-02T14:48:41;10.13;;;8.20;;
38779;SDS011;29273;49.962;9.768;2023-07-02T14:51:06;10.00;;;8.30;;